createdAt,value
2022-12-17T00:00:08.515Z,981.86
2022-12-17T00:01:08.444Z,981.91
2022-12-17T00:02:08.413Z,981.93
2022-12-17T00:03:08.527Z,981.94
2022-12-17T00:04:08.507Z,981.96
2022-12-17T00:05:08.385Z,982.02
2022-12-17T00:06:08.388Z,982.04
2022-12-17T00:07:08.352Z,981.96
2022-12-17T00:08:08.352Z,981.99
2022-12-17T00:09:08.322Z,982.00
2022-12-17T00:10:08.316Z,982.03
2022-12-17T00:11:08.321Z,982.05
2022-12-17T00:12:08.282Z,982.08
2022-12-17T00:13:08.271Z,982.07
2022-12-17T00:14:08.271Z,982.06
2022-12-17T00:15:08.251Z,982.10
2022-12-17T00:16:08.344Z,982.09
2022-12-17T00:17:08.228Z,982.05
2022-12-17T00:18:08.221Z,982.05
2022-12-17T00:19:08.200Z,982.05
2022-12-17T00:20:08.201Z,982.08
2022-12-17T00:21:08.194Z,982.07
2022-12-17T00:22:08.173Z,982.11
2022-12-17T00:23:08.153Z,982.11
2022-12-17T00:24:08.143Z,982.14
2022-12-17T00:25:08.132Z,982.14
2022-12-17T00:26:08.131Z,982.18
2022-12-17T00:27:08.102Z,982.18
2022-12-17T00:28:08.097Z,982.22
2022-12-17T00:29:08.078Z,982.19
2022-12-17T00:30:08.085Z,982.24
2022-12-17T00:31:08.097Z,982.26
2022-12-17T00:32:08.051Z,982.29
2022-12-17T00:33:08.030Z,982.24
2022-12-17T00:34:08.028Z,982.28
2022-12-17T00:35:08.003Z,982.29
2022-12-17T00:36:08.001Z,982.28
2022-12-17T00:37:07.981Z,982.36
2022-12-17T00:38:07.960Z,982.32
2022-12-17T00:39:07.951Z,982.37
2022-12-17T00:40:07.931Z,982.36
2022-12-17T00:41:07.930Z,982.32
2022-12-17T00:42:07.931Z,982.40
2022-12-17T00:43:07.900Z,982.43
2022-12-17T00:44:07.900Z,982.43
2022-12-17T00:45:07.871Z,982.46
2022-12-17T00:46:07.863Z,982.42
2022-12-17T00:47:07.958Z,982.43
2022-12-17T00:48:07.829Z,982.42
2022-12-17T00:49:07.829Z,982.55
2022-12-17T00:50:07.809Z,982.54
2022-12-17T00:51:07.821Z,982.52
2022-12-17T00:52:07.781Z,982.55
2022-12-17T00:53:07.772Z,982.48
2022-12-17T00:54:07.765Z,982.50
2022-12-17T00:55:07.751Z,982.55
2022-12-17T00:56:07.760Z,982.52
2022-12-17T00:57:07.741Z,982.55
2022-12-17T00:58:07.721Z,982.54
2022-12-17T00:59:07.691Z,982.57
2022-12-17T01:00:07.678Z,982.60
2022-12-17T01:01:07.697Z,982.60
2022-12-17T01:02:07.743Z,982.57
2022-12-17T01:03:07.696Z,982.64
2022-12-17T01:04:07.633Z,982.62
2022-12-17T01:05:07.621Z,982.59
2022-12-17T01:06:07.600Z,982.58
2022-12-17T01:07:07.600Z,982.62
2022-12-17T01:08:07.590Z,982.66
2022-12-17T01:09:07.569Z,982.67
2022-12-17T01:10:07.560Z,982.65
2022-12-17T01:11:07.549Z,982.67
2022-12-17T01:12:07.530Z,982.67
2022-12-17T01:13:07.521Z,982.71
2022-12-17T01:14:07.510Z,982.69
2022-12-17T01:15:07.500Z,982.74
2022-12-17T01:16:07.529Z,982.72
2022-12-17T01:17:07.480Z,982.79
2022-12-17T01:18:07.449Z,982.81
2022-12-17T01:19:07.439Z,982.82
2022-12-17T01:20:07.434Z,982.85
2022-12-17T01:21:07.421Z,982.93
2022-12-17T01:22:07.415Z,982.94
2022-12-17T01:23:07.393Z,982.94
2022-12-17T01:24:07.369Z,982.94
2022-12-17T01:25:07.359Z,982.96
2022-12-17T01:26:07.372Z,982.96
2022-12-17T01:27:07.340Z,982.99
2022-12-17T01:28:07.347Z,982.96
2022-12-17T01:29:07.332Z,982.95
2022-12-17T01:30:07.298Z,983.05
2022-12-17T01:31:07.385Z,983.02
2022-12-17T01:32:07.335Z,983.03
2022-12-17T01:33:07.250Z,983.06
2022-12-17T01:34:07.278Z,983.07
2022-12-17T01:35:07.249Z,983.07
2022-12-17T01:36:07.228Z,983.08
2022-12-17T01:37:07.207Z,983.13
2022-12-17T01:38:07.191Z,983.09
2022-12-17T01:39:07.190Z,983.11
2022-12-17T01:40:07.159Z,983.18
2022-12-17T01:41:07.169Z,983.15
2022-12-17T01:42:07.138Z,983.18
2022-12-17T01:43:07.127Z,983.20
2022-12-17T01:44:07.122Z,983.17
2022-12-17T01:45:07.100Z,983.18
2022-12-17T01:46:07.151Z,983.25
2022-12-17T01:47:07.081Z,983.24
2022-12-17T01:48:07.058Z,983.18
2022-12-17T01:49:07.069Z,983.26
2022-12-17T01:50:07.028Z,983.23
2022-12-17T01:51:07.037Z,983.32
2022-12-17T01:52:07.009Z,983.23
2022-12-17T01:53:07.008Z,983.30
2022-12-17T01:54:07.008Z,983.33
2022-12-17T01:55:06.969Z,983.29
2022-12-17T01:56:07.018Z,983.26
2022-12-17T01:57:06.955Z,983.24
2022-12-17T01:58:06.929Z,983.26
2022-12-17T01:59:06.947Z,983.30
2022-12-17T02:00:06.907Z,983.33
2022-12-17T02:01:06.979Z,983.26
2022-12-17T02:02:07.135Z,983.35
2022-12-17T02:03:06.916Z,983.36
2022-12-17T02:04:06.868Z,983.36
2022-12-17T02:05:06.859Z,983.38
2022-12-17T02:06:06.835Z,983.35
2022-12-17T02:07:06.856Z,983.34
2022-12-17T02:08:06.819Z,983.39
2022-12-17T02:09:06.800Z,983.43
2022-12-17T02:10:06.786Z,983.39
2022-12-17T02:11:06.789Z,983.39
2022-12-17T02:12:06.747Z,983.45
2022-12-17T02:13:06.776Z,983.45
2022-12-17T02:14:06.750Z,983.51
2022-12-17T02:15:06.740Z,983.50
2022-12-17T02:16:06.734Z,983.53
2022-12-17T02:17:06.688Z,983.46
2022-12-17T02:18:06.687Z,983.47
2022-12-17T02:19:06.685Z,983.48
2022-12-17T02:20:06.666Z,983.41
2022-12-17T02:21:06.658Z,983.49
2022-12-17T02:22:06.637Z,983.47
2022-12-17T02:23:06.656Z,983.50
2022-12-17T02:24:06.616Z,983.47
2022-12-17T02:25:06.606Z,983.51
2022-12-17T02:26:06.579Z,983.50
2022-12-17T02:27:06.577Z,983.52
2022-12-17T02:28:06.559Z,983.54
2022-12-17T02:29:06.546Z,983.52
2022-12-17T02:30:06.538Z,983.63
2022-12-17T02:31:06.535Z,983.59
2022-12-17T02:32:06.626Z,983.56
2022-12-17T02:33:06.506Z,983.67
2022-12-17T02:34:06.497Z,983.59
2022-12-17T02:35:06.472Z,983.63
2022-12-17T02:36:06.457Z,983.70
2022-12-17T02:37:06.469Z,983.68
2022-12-17T02:38:06.439Z,983.63
2022-12-17T02:39:06.437Z,983.67
2022-12-17T02:40:06.416Z,983.71
2022-12-17T02:41:06.406Z,983.70
2022-12-17T02:42:06.497Z,983.64
2022-12-17T02:43:06.366Z,983.63
2022-12-17T02:44:06.355Z,983.70
2022-12-17T02:45:06.345Z,983.70
2022-12-17T02:46:06.371Z,983.76
2022-12-17T02:47:06.327Z,983.82
2022-12-17T02:48:06.320Z,983.78
2022-12-17T02:49:06.303Z,983.77
2022-12-17T02:50:06.313Z,983.80
2022-12-17T02:51:06.291Z,983.79
2022-12-17T02:52:06.287Z,983.80
2022-12-17T02:53:06.265Z,983.77
2022-12-17T02:54:06.265Z,983.72
2022-12-17T02:55:06.225Z,983.81
2022-12-17T02:56:06.227Z,983.83
2022-12-17T02:57:06.216Z,983.77
2022-12-17T02:58:06.209Z,983.81
2022-12-17T02:59:06.185Z,983.82
2022-12-17T03:00:06.165Z,983.84
2022-12-17T03:01:06.242Z,983.82
2022-12-17T03:02:06.358Z,983.81
2022-12-17T03:03:06.180Z,983.82
2022-12-17T03:04:06.133Z,983.88
2022-12-17T03:05:27.544Z,983.84
2022-12-17T03:06:07.106Z,983.92
2022-12-17T03:07:06.176Z,983.92
2022-12-17T03:08:06.067Z,983.91
2022-12-17T03:09:06.053Z,983.96
2022-12-17T03:10:06.054Z,984.00
2022-12-17T03:11:06.050Z,984.07
2022-12-17T03:12:06.043Z,984.12
2022-12-17T03:13:06.025Z,984.04
2022-12-17T03:14:06.001Z,984.08
2022-12-17T03:15:05.997Z,984.11
2022-12-17T03:16:05.983Z,984.09
2022-12-17T03:17:06.034Z,984.10
2022-12-17T03:18:05.948Z,984.13
2022-12-17T03:19:05.943Z,984.09
2022-12-17T03:20:05.936Z,984.17
2022-12-17T03:21:05.924Z,984.16
2022-12-17T03:22:05.924Z,984.18
2022-12-17T03:23:05.895Z,984.15
2022-12-17T03:24:05.898Z,984.21
2022-12-17T03:25:05.885Z,984.21
2022-12-17T03:26:05.878Z,984.26
2022-12-17T03:27:05.886Z,984.29
2022-12-17T03:28:05.847Z,984.31
2022-12-17T03:29:05.833Z,984.29
2022-12-17T03:30:05.814Z,984.31
2022-12-17T03:31:05.826Z,984.33
2022-12-17T03:32:05.781Z,984.30
2022-12-17T03:33:05.783Z,984.32
2022-12-17T03:34:05.774Z,984.34
2022-12-17T03:35:05.754Z,984.31
2022-12-17T03:36:05.779Z,984.31
2022-12-17T03:37:05.724Z,984.35
2022-12-17T03:38:05.731Z,984.35
2022-12-17T03:39:05.693Z,984.38
2022-12-17T03:40:05.685Z,984.41
2022-12-17T03:41:05.672Z,984.45
2022-12-17T03:42:05.653Z,984.43
2022-12-17T03:43:05.664Z,984.39
2022-12-17T03:44:05.633Z,984.46
2022-12-17T03:45:05.633Z,984.40
2022-12-17T03:46:05.644Z,984.51
2022-12-17T03:47:05.593Z,984.44
2022-12-17T03:48:05.592Z,984.42
2022-12-17T03:49:05.581Z,984.49
2022-12-17T03:50:05.572Z,984.45
2022-12-17T04:03:41.972Z,984.54
2022-12-17T04:04:41.925Z,984.52
2022-12-17T04:05:41.904Z,984.49
2022-12-17T04:06:41.888Z,984.46
2022-12-17T04:07:41.892Z,984.50
2022-12-17T04:08:41.895Z,984.53
2022-12-17T04:09:41.863Z,984.52
2022-12-17T04:10:41.862Z,984.61
2022-12-17T04:11:41.868Z,984.65
2022-12-17T04:12:41.823Z,984.65
2022-12-17T04:13:41.832Z,984.64
2022-12-17T04:14:41.802Z,984.64
2022-12-17T04:15:41.833Z,984.70
2022-12-17T04:16:49.285Z,984.70
2022-12-17T04:17:41.758Z,984.74
2022-12-17T04:18:41.755Z,984.74
2022-12-17T04:19:41.747Z,984.80
2022-12-17T04:20:41.757Z,984.81
2022-12-17T04:21:41.736Z,984.81
2022-12-17T04:22:41.706Z,984.90
2022-12-17T04:23:41.745Z,984.83
2022-12-17T04:24:41.683Z,984.90
2022-12-17T04:25:41.666Z,984.91
2022-12-17T04:26:41.667Z,984.89
2022-12-17T04:27:41.657Z,984.94
2022-12-17T04:28:41.636Z,984.91
2022-12-17T04:29:41.647Z,984.99
2022-12-17T04:30:41.664Z,984.91
2022-12-17T04:31:41.615Z,984.92
2022-12-17T04:32:41.586Z,985.01
2022-12-17T04:33:41.575Z,985.01
2022-12-17T04:34:41.582Z,985.05
2022-12-17T04:35:41.553Z,985.04
2022-12-17T04:36:41.586Z,985.01
2022-12-17T04:37:41.537Z,985.09
2022-12-17T04:38:41.504Z,985.08
2022-12-17T04:39:41.545Z,985.09
2022-12-17T04:40:41.486Z,985.04
2022-12-17T04:41:41.495Z,985.05
2022-12-17T04:42:41.476Z,985.03
2022-12-17T04:43:41.454Z,985.03
2022-12-17T04:44:41.471Z,985.01
2022-12-17T04:45:41.443Z,985.00
2022-12-17T04:46:41.479Z,985.04
2022-12-17T04:47:41.425Z,985.03
2022-12-17T04:48:41.395Z,985.10
2022-12-17T04:49:41.404Z,985.14
2022-12-17T04:50:41.386Z,985.12
2022-12-17T04:51:41.358Z,985.06
2022-12-17T04:52:41.367Z,985.11
2022-12-17T04:53:41.346Z,985.08
2022-12-17T04:54:41.344Z,985.10
2022-12-17T04:55:41.318Z,985.14
2022-12-17T04:56:41.294Z,985.12
2022-12-17T04:57:41.305Z,985.07
2022-12-17T04:58:41.284Z,985.18
2022-12-17T04:59:41.283Z,985.11
2022-12-17T05:00:41.270Z,985.16
2022-12-17T05:01:41.344Z,985.16
2022-12-17T05:02:42.987Z,985.13
2022-12-17T05:03:41.601Z,985.22
2022-12-17T05:04:41.238Z,985.17
2022-12-17T05:05:41.218Z,985.17
2022-12-17T05:06:41.174Z,985.19
2022-12-17T05:07:41.165Z,985.22
2022-12-17T05:08:41.660Z,985.22
2022-12-17T05:09:41.168Z,985.22
2022-12-17T05:10:41.149Z,985.23
2022-12-17T05:11:41.143Z,985.25
2022-12-17T05:12:41.103Z,985.40
2022-12-17T05:13:41.102Z,985.39
2022-12-17T05:14:41.112Z,985.44
2022-12-17T05:15:41.106Z,985.43
2022-12-17T05:16:41.052Z,985.46
2022-12-17T05:17:41.083Z,985.44
2022-12-17T05:18:41.031Z,985.42
2022-12-17T05:19:41.037Z,985.49
2022-12-17T05:20:41.031Z,985.54
2022-12-17T05:21:41.046Z,985.55
2022-12-17T05:22:40.991Z,985.54
2022-12-17T05:23:40.985Z,985.64
2022-12-17T05:24:40.963Z,985.65
2022-12-17T05:25:41.012Z,985.63
2022-12-17T05:26:40.952Z,985.72
2022-12-17T05:27:40.934Z,985.66
2022-12-17T05:28:40.955Z,985.72
2022-12-17T05:29:40.912Z,985.72
2022-12-17T05:30:40.913Z,985.70
2022-12-17T05:31:40.956Z,985.66
2022-12-17T05:32:41.007Z,985.72
2022-12-17T05:33:40.863Z,985.72
2022-12-17T05:34:40.860Z,985.71
2022-12-17T05:35:40.846Z,985.80
2022-12-17T05:36:40.836Z,985.80
2022-12-17T05:37:40.833Z,985.81
2022-12-17T05:38:40.795Z,985.83
2022-12-17T05:39:40.803Z,985.77
2022-12-17T05:40:40.811Z,985.75
2022-12-17T05:41:40.794Z,985.80
2022-12-17T05:42:40.752Z,985.81
2022-12-17T05:43:40.765Z,985.82
2022-12-17T05:44:40.731Z,985.78
2022-12-17T05:45:40.743Z,985.81
2022-12-17T05:46:40.798Z,985.83
2022-12-17T05:47:40.713Z,985.80
2022-12-17T05:48:40.692Z,985.76
2022-12-17T05:49:40.691Z,985.84
2022-12-17T05:50:40.680Z,985.83
2022-12-17T05:51:40.650Z,985.81
2022-12-17T05:52:40.632Z,985.88
2022-12-17T05:53:40.623Z,985.86
2022-12-17T05:54:40.633Z,985.84
2022-12-17T05:55:40.611Z,985.82
2022-12-17T05:56:40.612Z,985.93
2022-12-17T05:57:40.571Z,985.92
2022-12-17T05:58:40.574Z,985.90
2022-12-17T05:59:40.560Z,985.94
2022-12-17T06:00:40.551Z,985.90
2022-12-17T06:01:40.640Z,985.93
2022-12-17T06:02:40.645Z,985.99
2022-12-17T06:03:41.162Z,985.98
2022-12-17T06:04:40.511Z,986.01
2022-12-17T06:05:40.494Z,985.97
2022-12-17T06:06:40.490Z,986.05
2022-12-17T06:07:40.459Z,986.03
2022-12-17T06:08:40.468Z,986.03
2022-12-17T06:09:40.489Z,986.13
2022-12-17T06:10:40.468Z,986.15
2022-12-17T06:11:40.434Z,986.13
2022-12-17T06:12:40.440Z,986.12
2022-12-17T06:13:40.404Z,986.15
2022-12-17T06:14:40.415Z,986.12
2022-12-17T06:15:40.380Z,986.15
2022-12-17T06:16:40.391Z,986.13
2022-12-17T06:17:40.361Z,986.12
2022-12-17T06:18:40.331Z,986.15
2022-12-17T06:19:40.324Z,986.21
2022-12-17T06:20:40.328Z,986.19
2022-12-17T06:21:40.314Z,986.14
2022-12-17T06:22:40.297Z,986.19
2022-12-17T06:23:40.264Z,986.21
2022-12-17T06:24:45.725Z,986.18
2022-12-17T06:25:41.283Z,986.20
2022-12-17T06:26:40.244Z,986.16
2022-12-17T06:27:40.270Z,986.19
2022-12-17T06:28:40.225Z,986.21
2022-12-17T06:29:40.205Z,986.22
2022-12-17T06:30:40.217Z,986.29
2022-12-17T06:31:40.240Z,986.33
2022-12-17T06:32:40.180Z,986.31
2022-12-17T06:33:40.164Z,986.28
2022-12-17T06:34:40.159Z,986.33
2022-12-17T06:35:40.150Z,986.31
2022-12-17T06:36:40.151Z,986.30
2022-12-17T06:37:40.110Z,986.41
2022-12-17T06:38:40.119Z,986.39
2022-12-17T06:39:40.103Z,986.39
2022-12-17T06:40:40.100Z,986.49
2022-12-17T06:41:40.087Z,986.42
2022-12-17T06:42:40.069Z,986.43
2022-12-17T06:43:40.049Z,986.51
2022-12-17T06:44:40.058Z,986.56
2022-12-17T06:45:40.071Z,986.61
2022-12-17T06:46:40.036Z,986.61
2022-12-17T06:47:40.002Z,986.62
2022-12-17T06:48:39.991Z,986.71
2022-12-17T06:49:39.959Z,986.69
2022-12-17T06:50:39.991Z,986.74
2022-12-17T06:51:39.967Z,986.77
2022-12-17T06:52:39.931Z,986.68
2022-12-17T06:53:39.927Z,986.75
2022-12-17T06:54:39.918Z,986.73
2022-12-17T06:55:39.904Z,986.80
2022-12-17T06:56:39.890Z,986.78
2022-12-17T06:57:41.807Z,986.74
2022-12-17T06:58:39.859Z,986.72
2022-12-17T06:59:39.881Z,986.72
2022-12-17T07:00:39.891Z,986.77
2022-12-17T07:01:40.007Z,986.81
2022-12-17T07:02:39.909Z,986.78
2022-12-17T07:03:39.992Z,986.89
2022-12-17T07:04:39.817Z,986.80
2022-12-17T07:05:39.788Z,986.94
2022-12-17T07:06:39.816Z,986.96
2022-12-17T07:07:39.765Z,986.89
2022-12-17T07:08:39.746Z,986.98
2022-12-17T07:09:39.740Z,986.99
2022-12-17T07:10:39.720Z,987.00
2022-12-17T07:11:39.752Z,987.07
2022-12-17T07:12:39.702Z,987.01
2022-12-17T07:13:40.175Z,987.06
2022-12-17T07:14:39.686Z,987.08
2022-12-17T07:15:39.672Z,987.06
2022-12-17T07:16:39.777Z,987.07
2022-12-17T07:17:39.638Z,987.13
2022-12-17T07:18:39.698Z,987.15
2022-12-17T07:19:39.607Z,987.15
2022-12-17T07:20:39.613Z,987.20
2022-12-17T07:21:39.577Z,987.13
2022-12-17T07:22:39.595Z,987.22
2022-12-17T07:23:39.814Z,987.18
2022-12-17T07:24:39.551Z,987.28
2022-12-17T07:25:45.684Z,987.28
2022-12-17T07:26:40.555Z,987.26
2022-12-17T07:27:39.521Z,987.35
2022-12-17T07:28:39.511Z,987.29
2022-12-17T07:29:39.513Z,987.30
2022-12-17T07:30:39.506Z,987.32
2022-12-17T07:31:39.524Z,987.31
2022-12-17T07:32:39.469Z,987.35
2022-12-17T07:33:39.574Z,987.38
2022-12-17T07:34:39.436Z,987.44
2022-12-17T07:35:39.491Z,987.42
2022-12-17T07:36:39.435Z,987.48
2022-12-17T07:37:39.449Z,987.46
2022-12-17T07:38:39.388Z,987.49
2022-12-17T07:39:39.420Z,987.53
2022-12-17T07:40:39.399Z,987.55
2022-12-17T07:41:39.379Z,987.56
2022-12-17T07:42:39.365Z,987.57
2022-12-17T07:43:39.661Z,987.59
2022-12-17T07:44:39.346Z,987.62
2022-12-17T07:45:39.416Z,987.66
2022-12-17T07:46:39.309Z,987.67
2022-12-17T07:47:39.268Z,987.67
2022-12-17T07:48:39.270Z,987.62
2022-12-17T07:49:39.337Z,987.61
2022-12-17T07:50:39.238Z,987.69
2022-12-17T07:51:39.331Z,987.62
2022-12-17T07:52:39.249Z,987.60
2022-12-17T07:53:39.410Z,987.60
2022-12-17T07:54:40.011Z,987.65
2022-12-17T07:55:39.167Z,987.60
2022-12-17T07:56:39.191Z,987.61
2022-12-17T07:57:39.157Z,987.63
2022-12-17T07:58:39.148Z,987.72
2022-12-17T07:59:39.183Z,987.68
2022-12-17T08:00:40.048Z,987.68
2022-12-17T08:01:39.234Z,987.72
2022-12-17T08:02:39.305Z,987.74
2022-12-17T08:03:39.613Z,987.75
2022-12-17T08:04:39.098Z,987.79
2022-12-17T08:05:39.061Z,987.82
2022-12-17T08:06:39.097Z,987.77
2022-12-17T08:07:39.049Z,987.74
2022-12-17T08:08:39.056Z,987.76
2022-12-17T08:09:39.055Z,987.77
2022-12-17T08:10:39.006Z,987.81
2022-12-17T08:11:39.026Z,987.78
2022-12-17T08:12:38.987Z,987.85
2022-12-17T08:13:39.378Z,987.75
2022-12-17T08:14:38.975Z,987.85
2022-12-17T08:15:38.956Z,987.83
2022-12-17T08:16:39.021Z,987.77
2022-12-17T08:17:38.928Z,987.75
2022-12-17T08:18:38.955Z,987.81
2022-12-17T08:19:38.915Z,987.79
2022-12-17T08:20:38.926Z,987.84
2022-12-17T08:21:38.918Z,987.83
2022-12-17T08:22:38.935Z,987.85
2022-12-17T08:23:39.319Z,987.88
2022-12-17T08:24:38.865Z,987.88
2022-12-17T08:25:38.857Z,987.94
2022-12-17T08:26:42.028Z,987.93
2022-12-17T08:27:39.826Z,987.93
2022-12-17T08:28:50.622Z,987.99
2022-12-17T08:29:39.824Z,988.04
2022-12-17T08:30:38.884Z,988.00
2022-12-17T08:31:38.862Z,987.97
2022-12-17T08:32:38.782Z,987.91
2022-12-17T08:33:39.022Z,988.01
2022-12-17T08:34:38.743Z,987.93
2022-12-17T08:35:38.778Z,987.91
2022-12-17T08:36:38.737Z,988.01
2022-12-17T08:37:38.706Z,988.03
2022-12-17T08:38:38.703Z,988.05
2022-12-17T08:39:38.681Z,987.99
2022-12-17T08:40:38.744Z,988.03
2022-12-17T08:41:38.656Z,988.07
2022-12-17T08:42:38.672Z,988.04
2022-12-17T08:43:39.063Z,988.03
2022-12-17T08:44:38.636Z,988.10
2022-12-17T08:45:38.638Z,988.06
2022-12-17T08:46:38.591Z,988.12
2022-12-17T08:47:38.653Z,988.16
2022-12-17T08:48:38.643Z,988.11
2022-12-17T08:49:38.571Z,988.15
2022-12-17T08:50:38.572Z,988.13
2022-12-17T08:51:38.530Z,988.15
2022-12-17T08:52:38.542Z,988.11
2022-12-17T08:53:38.919Z,988.07
2022-12-17T08:54:38.516Z,988.14
2022-12-17T08:55:38.499Z,988.12
2022-12-17T08:56:38.483Z,988.13
2022-12-17T08:57:38.494Z,988.11
2022-12-17T08:58:38.452Z,988.13
2022-12-17T08:59:38.450Z,988.10
2022-12-17T09:00:38.424Z,988.16
2022-12-17T09:01:38.480Z,988.19
2022-12-17T09:02:47.218Z,988.21
2022-12-17T09:03:45.987Z,988.10
2022-12-17T09:04:46.922Z,988.16
2022-12-17T09:05:38.401Z,988.09
2022-12-17T09:06:39.392Z,988.03
2022-12-17T09:07:38.326Z,988.13
2022-12-17T09:08:38.315Z,988.14
2022-12-17T09:09:38.318Z,988.13
2022-12-17T09:10:38.325Z,988.11
2022-12-17T09:11:45.821Z,988.16
2022-12-17T09:12:48.008Z,988.15
2022-12-17T09:13:38.675Z,988.17
2022-12-17T09:14:38.247Z,988.20
2022-12-17T09:15:46.862Z,988.26
2022-12-17T09:16:38.277Z,988.14
2022-12-17T09:17:38.220Z,988.20
2022-12-17T09:18:38.367Z,988.24
2022-12-17T09:19:38.193Z,988.27
2022-12-17T09:20:38.272Z,988.29
2022-12-17T09:21:38.188Z,988.33
2022-12-17T09:22:38.194Z,988.36
2022-12-17T09:23:38.674Z,988.37
2022-12-17T09:24:38.139Z,988.37
2022-12-17T09:25:38.117Z,988.40
2022-12-17T09:26:38.119Z,988.35
2022-12-17T09:27:38.133Z,988.34
2022-12-17T09:28:38.108Z,988.36
2022-12-17T09:29:38.111Z,988.39
2022-12-17T09:30:38.089Z,988.32
2022-12-17T09:31:38.074Z,988.29
2022-12-17T09:32:38.087Z,988.36
2022-12-17T09:33:38.522Z,988.40
2022-12-17T09:34:38.039Z,988.38
2022-12-17T09:35:38.088Z,988.44
2022-12-17T09:36:37.984Z,988.36
2022-12-17T09:37:37.981Z,988.38
2022-12-17T09:38:38.003Z,988.31
2022-12-17T09:39:37.939Z,988.29
2022-12-17T09:40:37.949Z,988.29
2022-12-17T09:41:37.919Z,988.31
2022-12-17T09:42:37.909Z,988.29
2022-12-17T09:43:38.251Z,988.27
2022-12-17T09:44:37.919Z,988.28
2022-12-17T09:45:37.879Z,988.24
2022-12-17T09:46:37.912Z,988.20
2022-12-17T09:47:37.860Z,988.22
2022-12-17T10:03:52.531Z,988.20
2022-12-17T10:04:44.407Z,988.15
2022-12-17T10:05:44.397Z,988.15
2022-12-17T10:06:44.389Z,988.19
2022-12-17T10:07:44.358Z,988.20
2022-12-17T10:08:44.397Z,988.19
2022-12-17T10:09:44.339Z,988.11
2022-12-17T10:10:44.331Z,988.12
2022-12-17T10:11:44.602Z,988.18
2022-12-17T10:12:44.300Z,988.10
2022-12-17T10:13:44.298Z,988.14
2022-12-17T10:14:44.301Z,988.12
2022-12-17T10:15:44.335Z,988.16
2022-12-17T10:16:44.247Z,988.18
2022-12-17T10:17:52.855Z,988.18
2022-12-17T10:18:44.236Z,988.23
2022-12-17T10:19:44.217Z,988.18
2022-12-17T10:20:44.201Z,988.16
2022-12-17T10:21:44.176Z,988.16
2022-12-17T10:22:44.189Z,988.20
2022-12-17T10:23:44.166Z,988.23
2022-12-17T10:24:44.172Z,988.21
2022-12-17T10:25:44.136Z,988.20
2022-12-17T10:26:44.146Z,988.21
2022-12-17T10:27:44.107Z,988.24
2022-12-17T10:28:44.102Z,988.20
2022-12-17T10:29:48.181Z,988.22
2022-12-17T10:30:44.132Z,988.26
2022-12-17T10:31:44.057Z,988.27
2022-12-17T10:32:44.082Z,988.29
2022-12-17T10:33:44.039Z,988.26
2022-12-17T10:34:44.028Z,988.26
2022-12-17T10:35:44.039Z,988.24
2022-12-17T10:36:43.996Z,988.30
2022-12-17T10:37:43.987Z,988.22
2022-12-17T10:38:43.998Z,988.27
2022-12-17T10:39:43.966Z,988.24
2022-12-17T10:40:43.967Z,988.21
2022-12-17T10:41:43.926Z,988.25
2022-12-17T10:42:43.917Z,988.30
2022-12-17T10:43:43.900Z,988.28
2022-12-17T10:44:43.907Z,988.33
2022-12-17T10:45:43.892Z,988.36
2022-12-17T10:46:43.919Z,988.36
2022-12-17T10:47:43.847Z,988.33
2022-12-17T10:48:43.839Z,988.34
2022-12-17T10:49:43.833Z,988.29
2022-12-17T10:50:44.285Z,988.29
2022-12-17T10:51:43.789Z,988.33
2022-12-17T10:52:43.789Z,988.35
2022-12-17T10:53:43.770Z,988.36
2022-12-17T10:54:48.762Z,988.37
2022-12-17T10:55:44.737Z,988.39
2022-12-17T10:56:43.739Z,988.40
2022-12-17T10:57:43.738Z,988.30
2022-12-17T10:58:43.710Z,988.39
2022-12-17T10:59:43.730Z,988.44
2022-12-17T11:00:49.435Z,988.35
2022-12-17T11:01:44.788Z,988.37
2022-12-17T11:02:43.837Z,988.34
2022-12-17T11:03:43.701Z,988.35
2022-12-17T11:04:43.657Z,988.23
2022-12-17T11:05:43.709Z,988.30
2022-12-17T11:06:44.170Z,988.39
2022-12-17T11:07:43.597Z,988.33
2022-12-17T11:08:43.588Z,988.35
2022-12-17T11:09:43.582Z,988.38
2022-12-17T11:10:43.610Z,988.34
2022-12-17T11:11:43.552Z,988.40
2022-12-17T11:12:43.543Z,988.34
2022-12-17T11:13:43.508Z,988.35
2022-12-17T11:14:43.525Z,988.35
2022-12-17T11:15:43.541Z,988.42
2022-12-17T11:16:43.517Z,988.39
2022-12-17T11:17:43.468Z,988.36
2022-12-17T11:18:43.463Z,988.37
2022-12-17T11:19:43.468Z,988.35
2022-12-17T11:20:43.446Z,988.34
2022-12-17T11:21:43.423Z,988.35
2022-12-17T11:22:43.410Z,988.34
2022-12-17T11:23:43.399Z,988.33
2022-12-17T11:24:43.389Z,988.38
2022-12-17T11:25:43.397Z,988.35
2022-12-17T11:26:43.362Z,988.41
2022-12-17T11:27:43.338Z,988.38
2022-12-17T11:28:43.340Z,988.37
2022-12-17T11:29:43.311Z,988.45
2022-12-17T11:30:43.309Z,988.36
2022-12-17T11:31:43.388Z,988.38
2022-12-17T11:32:43.309Z,988.36
2022-12-17T11:33:43.260Z,988.43
2022-12-17T11:34:43.247Z,988.37
2022-12-17T11:35:43.265Z,988.35
2022-12-17T11:36:43.247Z,988.39
2022-12-17T11:37:43.209Z,988.37
2022-12-17T11:38:43.219Z,988.37
2022-12-17T11:39:43.188Z,988.38
2022-12-17T11:40:43.192Z,988.35
2022-12-17T11:41:43.158Z,988.38
2022-12-17T11:42:43.148Z,988.35
2022-12-17T11:43:43.131Z,988.29
2022-12-17T11:45:53.349Z,988.31
2022-12-17T11:46:53.475Z,988.24
2022-12-17T11:47:57.546Z,988.28
2022-12-17T11:48:54.312Z,988.25
2022-12-17T11:49:53.280Z,988.28
2022-12-17T11:50:53.279Z,988.25
2022-12-17T11:51:53.284Z,988.32
2022-12-17T11:52:53.334Z,988.21
2022-12-17T11:53:53.235Z,988.23
2022-12-17T11:54:53.211Z,988.26
2022-12-17T11:55:53.238Z,988.21
2022-12-17T11:56:53.196Z,988.21
2022-12-17T11:57:53.180Z,988.24
2022-12-17T11:58:53.173Z,988.19
2022-12-17T11:59:56.137Z,988.19
2022-12-17T12:00:54.208Z,988.25
2022-12-17T12:01:53.219Z,988.21
2022-12-17T12:02:53.193Z,988.26
2022-12-17T12:03:53.179Z,988.27
2022-12-17T12:04:53.119Z,988.20
2022-12-17T12:05:56.650Z,988.23
2022-12-17T12:06:53.079Z,988.24
2022-12-17T12:07:53.083Z,988.16
2022-12-17T12:08:53.041Z,988.27
2022-12-17T12:09:53.043Z,988.25
2022-12-17T12:10:53.024Z,988.29
2022-12-17T12:11:53.000Z,988.33
2022-12-17T12:12:52.999Z,988.32
2022-12-17T12:13:52.981Z,988.29
2022-12-17T12:14:52.963Z,988.33
2022-12-17T12:15:53.086Z,988.35
2022-12-17T12:16:53.045Z,988.31
2022-12-17T12:17:52.945Z,988.32
2022-12-17T12:18:52.916Z,988.37
2022-12-17T12:19:52.901Z,988.33
2022-12-17T12:20:52.977Z,988.33
2022-12-17T12:21:52.881Z,988.35
2022-12-17T12:22:52.880Z,988.31
2022-12-17T12:23:52.860Z,988.33
2022-12-17T12:24:52.832Z,988.36
2022-12-17T12:25:52.839Z,988.37
2022-12-17T12:26:52.821Z,988.30
2022-12-17T12:27:52.807Z,988.27
2022-12-17T12:28:52.796Z,988.33
2022-12-17T12:29:52.786Z,988.33
2022-12-17T12:30:52.769Z,988.28
2022-12-17T12:31:52.839Z,988.29
2022-12-17T12:32:52.737Z,988.30
2022-12-17T12:33:52.725Z,988.26
2022-12-17T12:34:52.710Z,988.31
2022-12-17T12:35:52.715Z,988.35
2022-12-17T12:36:52.701Z,988.28
2022-12-17T12:37:52.673Z,988.33
2022-12-17T12:38:52.662Z,988.26
2022-12-17T12:39:52.651Z,988.31
2022-12-17T12:40:52.653Z,988.31
2022-12-17T12:41:52.629Z,988.36
2022-12-17T12:42:52.782Z,988.29
2022-12-17T12:43:52.607Z,988.34
2022-12-17T12:44:52.589Z,988.30
2022-12-17T12:45:52.609Z,988.33
2022-12-17T12:46:52.601Z,988.27
2022-12-17T12:47:52.545Z,988.28
2022-12-17T12:48:52.543Z,988.33
2022-12-17T12:49:52.517Z,988.30
2022-12-17T12:50:52.532Z,988.32
2022-12-17T12:51:52.501Z,988.28
2022-12-17T12:52:52.536Z,988.28
2022-12-17T12:53:52.653Z,988.34
2022-12-17T12:54:52.444Z,988.32
2022-12-17T12:55:52.443Z,988.32
2022-12-17T12:56:52.460Z,988.35